createdAt,value
2023-05-16T00:01:48.974Z,9.10
2023-05-16T00:04:16.229Z,9.15
2023-05-16T00:06:43.115Z,9.35
2023-05-16T00:09:09.666Z,10.55
2023-05-16T00:11:36.212Z,9.75
2023-05-16T00:14:03.195Z,9.88
2023-05-16T00:16:30.459Z,10.05
2023-05-16T00:19:01.085Z,10.40
2023-05-16T00:21:27.889Z,9.88
2023-05-16T00:23:54.597Z,9.98
2023-05-16T00:26:21.630Z,10.40
2023-05-16T00:28:48.161Z,10.68
2023-05-16T00:31:14.723Z,10.48
2023-05-16T00:33:41.217Z,10.73
2023-05-16T00:36:07.820Z,10.43
2023-05-16T00:38:34.357Z,11.73
2023-05-16T00:41:00.919Z,11.30
2023-05-16T00:43:27.494Z,10.85
2023-05-16T00:45:54.972Z,10.77
2023-05-16T00:48:21.437Z,10.40
2023-05-16T00:50:49.639Z,10.85
2023-05-16T00:53:16.769Z,10.80
2023-05-16T00:55:43.946Z,11.50
2023-05-16T00:58:11.806Z,11.57
2023-05-16T01:00:38.490Z,11.18
2023-05-16T01:03:08.021Z,11.50
2023-05-16T01:05:34.731Z,11.50
2023-05-16T01:08:01.584Z,11.73
2023-05-16T01:10:32.844Z,11.60
2023-05-16T01:13:00.691Z,11.50
2023-05-16T01:15:38.847Z,11.43
2023-05-16T01:18:34.777Z,12.10
2023-05-16T01:21:05.153Z,11.60
2023-05-16T01:23:38.061Z,11.45
2023-05-16T01:26:23.502Z,11.50
2023-05-16T01:28:51.266Z,12.32
2023-05-16T01:31:19.178Z,12.00
2023-05-16T01:33:47.747Z,12.15
2023-05-16T01:36:33.046Z,11.60
2023-05-16T01:39:10.977Z,11.65
2023-05-16T01:42:01.695Z,11.50
2023-05-16T01:44:31.593Z,12.18
2023-05-16T01:47:01.838Z,13.55
2023-05-16T01:49:34.864Z,12.25
2023-05-16T01:52:04.603Z,12.05
2023-05-16T01:54:32.127Z,12.85
2023-05-16T01:56:59.686Z,12.18
2023-05-16T01:59:27.201Z,11.82
2023-05-16T02:01:55.199Z,12.90
2023-05-16T02:04:22.146Z,13.00
2023-05-16T02:06:48.781Z,13.55
2023-05-16T02:09:16.623Z,13.27
2023-05-16T02:11:43.726Z,12.43
2023-05-16T02:14:10.331Z,13.23
2023-05-16T02:16:37.317Z,12.80
2023-05-16T02:19:03.950Z,12.35
2023-05-16T02:21:31.230Z,12.55
2023-05-16T02:23:57.711Z,12.20
2023-05-16T02:26:26.651Z,11.95
2023-05-16T02:28:54.247Z,12.05
2023-05-16T02:31:27.664Z,11.15
2023-05-16T02:33:54.215Z,11.15
2023-05-16T02:36:22.585Z,11.68
2023-05-16T02:38:49.088Z,11.10
2023-05-16T02:41:15.797Z,11.02
2023-05-16T02:43:46.760Z,10.68
2023-05-16T02:46:25.797Z,11.13
2023-05-16T02:48:53.915Z,11.85
2023-05-16T02:51:21.435Z,11.82
2023-05-16T02:53:48.118Z,12.18
2023-05-16T02:56:14.901Z,12.13
2023-05-16T02:58:42.060Z,12.10
2023-05-16T03:01:09.187Z,12.73
2023-05-16T03:03:37.088Z,12.93
2023-05-16T03:06:03.994Z,12.93
2023-05-16T03:08:32.684Z,12.88
2023-05-16T03:10:59.269Z,12.85
2023-05-16T03:13:26.079Z,12.88
2023-05-16T03:15:53.066Z,13.40
2023-05-16T03:18:19.599Z,13.15
2023-05-16T03:20:46.222Z,13.57
2023-05-16T03:23:12.988Z,13.45
2023-05-16T03:25:39.642Z,13.07
2023-05-16T03:28:10.199Z,13.73
2023-05-16T03:30:36.734Z,13.43
2023-05-16T03:33:04.155Z,13.00
2023-05-16T03:35:34.458Z,12.98
2023-05-16T03:38:00.987Z,13.48
2023-05-16T03:40:27.585Z,13.65
2023-05-16T03:42:54.194Z,12.43
2023-05-16T03:45:20.800Z,13.05
2023-05-16T03:47:49.023Z,12.18
2023-05-16T03:50:16.398Z,13.15
2023-05-16T03:52:43.029Z,12.70
2023-05-16T03:55:09.606Z,13.20
2023-05-16T03:57:38.181Z,12.32
2023-05-16T04:00:08.050Z,12.35
2023-05-16T04:02:38.528Z,12.77
2023-05-16T04:05:05.482Z,13.52
2023-05-16T04:07:31.967Z,13.18
2023-05-16T04:09:59.076Z,14.00
2023-05-16T04:12:25.546Z,13.75
2023-05-16T04:14:52.001Z,14.48
2023-05-16T04:17:18.523Z,13.82
2023-05-16T04:19:45.242Z,14.60
2023-05-16T04:22:11.834Z,15.00
2023-05-16T04:24:38.300Z,16.23
2023-05-16T04:27:05.355Z,16.40
2023-05-16T04:29:32.368Z,16.83
2023-05-16T04:31:59.049Z,17.85
2023-05-16T04:34:27.912Z,17.30
2023-05-16T04:36:55.499Z,17.20
2023-05-16T04:39:22.378Z,17.63
2023-05-16T04:41:48.801Z,17.50
2023-05-16T04:44:15.501Z,18.27
2023-05-16T04:46:42.229Z,18.00
2023-05-16T04:49:08.892Z,19.50
2023-05-16T04:51:37.982Z,18.50
2023-05-16T04:54:04.539Z,18.90
2023-05-16T04:56:31.146Z,20.25
2023-05-16T04:58:57.639Z,22.90
2023-05-16T05:01:24.173Z,23.17
2023-05-16T05:03:50.739Z,24.40
2023-05-16T05:06:17.325Z,24.73
2023-05-16T05:08:43.856Z,25.20
2023-05-16T05:11:10.376Z,25.48
2023-05-16T05:13:36.900Z,25.25
2023-05-16T05:16:04.796Z,25.98
2023-05-16T05:18:31.480Z,25.00
2023-05-16T05:20:58.264Z,25.90
2023-05-16T05:23:24.816Z,26.52
2023-05-16T05:25:51.478Z,25.50
2023-05-16T05:28:18.063Z,26.52
2023-05-16T05:30:44.590Z,25.95
2023-05-16T05:33:11.750Z,26.90
2023-05-16T05:35:38.385Z,26.50
2023-05-16T05:38:04.785Z,26.92
2023-05-16T05:40:31.341Z,27.38
2023-05-16T05:42:57.944Z,27.80
2023-05-16T05:45:24.892Z,28.58
2023-05-16T05:47:54.153Z,28.25
2023-05-16T05:50:20.938Z,29.27
2023-05-16T05:52:47.457Z,29.25
2023-05-16T05:55:14.104Z,27.98
2023-05-16T05:57:40.776Z,29.42
2023-05-16T06:00:08.375Z,28.83
2023-05-16T06:02:35.033Z,28.63
2023-05-16T06:05:01.787Z,28.30
2023-05-16T06:07:28.330Z,28.25
2023-05-16T06:09:54.825Z,28.77
2023-05-16T06:12:21.358Z,29.10
2023-05-16T06:14:47.870Z,30.67
2023-05-16T06:17:14.427Z,29.15
2023-05-16T06:19:40.923Z,27.80
2023-05-16T06:22:07.391Z,28.67
2023-05-16T06:24:34.047Z,29.00
2023-05-16T06:27:00.637Z,29.42
2023-05-16T06:29:27.591Z,29.17
2023-05-16T06:31:54.170Z,28.02
2023-05-16T06:34:27.562Z,27.38
2023-05-16T06:36:56.555Z,27.45
2023-05-16T06:39:27.989Z,25.77
2023-05-16T06:41:56.506Z,26.33
2023-05-16T06:44:23.779Z,26.30
2023-05-16T06:46:50.461Z,25.80
2023-05-16T06:49:17.288Z,26.40
2023-05-16T06:51:43.940Z,26.02
2023-05-16T06:54:10.826Z,25.75
2023-05-16T06:56:37.341Z,26.38
2023-05-16T06:59:04.361Z,27.60
2023-05-16T07:01:31.019Z,26.38
2023-05-16T07:03:57.936Z,25.95
2023-05-16T07:06:24.673Z,24.73
2023-05-16T07:08:51.334Z,25.00
2023-05-16T07:11:17.905Z,21.80
2023-05-16T07:13:44.385Z,21.67
2023-05-16T07:16:11.127Z,21.88
2023-05-16T07:18:37.949Z,19.42
2023-05-16T07:21:04.622Z,19.40
2023-05-16T07:23:31.247Z,20.00
2023-05-16T07:25:58.712Z,19.85
2023-05-16T07:28:25.694Z,19.17
2023-05-16T07:30:52.300Z,19.55
2023-05-16T07:33:22.177Z,19.08
2023-05-16T07:35:49.981Z,18.38
2023-05-16T07:38:16.609Z,19.40
2023-05-16T07:40:43.233Z,18.17
2023-05-16T07:43:09.771Z,18.40
2023-05-16T07:45:36.636Z,18.98
2023-05-16T07:48:03.326Z,18.10
2023-05-16T07:50:29.909Z,17.15
2023-05-16T07:52:59.057Z,16.40
2023-05-16T07:55:27.350Z,16.63
2023-05-16T07:57:54.154Z,17.45
2023-05-16T08:00:21.515Z,17.45
2023-05-16T08:02:48.259Z,17.80
2023-05-16T08:05:14.876Z,18.10
2023-05-16T08:07:41.536Z,17.45
2023-05-16T08:10:08.457Z,18.00
2023-05-16T08:12:35.095Z,18.70
2023-05-16T08:15:01.768Z,18.58
2023-05-16T08:17:28.574Z,18.08
2023-05-16T08:19:56.126Z,15.63
2023-05-16T08:22:23.164Z,16.85
2023-05-16T08:24:49.701Z,16.58
2023-05-16T08:27:16.491Z,17.25
2023-05-16T08:29:43.278Z,18.60
2023-05-16T08:32:11.089Z,17.55
2023-05-16T08:34:37.724Z,17.83
2023-05-16T08:37:04.366Z,16.85
2023-05-16T08:39:30.910Z,15.50
2023-05-16T08:41:58.874Z,16.15
2023-05-16T08:44:25.490Z,16.25
2023-05-16T08:46:55.380Z,16.38
2023-05-16T08:49:22.005Z,15.60
2023-05-16T08:51:48.979Z,14.98
2023-05-16T08:54:16.735Z,16.50
2023-05-16T08:56:43.837Z,16.40
2023-05-16T08:59:11.857Z,17.30
2023-05-16T09:01:39.327Z,16.75
2023-05-16T09:04:08.035Z,18.05
2023-05-16T09:06:35.101Z,18.65
2023-05-16T09:09:03.557Z,18.88
2023-05-16T09:11:30.213Z,19.85
2023-05-16T09:13:56.679Z,20.98
2023-05-16T09:16:23.625Z,20.35
2023-05-16T09:18:58.225Z,19.25
2023-05-16T09:21:28.146Z,17.57
2023-05-16T09:23:55.318Z,17.45
2023-05-16T09:26:22.875Z,16.65
2023-05-16T09:28:53.225Z,14.77
2023-05-16T09:31:27.585Z,14.63
2023-05-16T09:33:57.124Z,13.20
2023-05-16T09:36:23.772Z,11.55
2023-05-16T09:38:51.371Z,10.65
2023-05-16T09:41:18.208Z,10.82
2023-05-16T09:43:45.123Z,9.88
2023-05-16T09:46:16.267Z,10.88
2023-05-16T09:48:49.177Z,9.70
2023-05-16T09:51:16.276Z,10.27
2023-05-16T09:53:43.395Z,8.43
2023-05-16T09:56:13.709Z,9.15
2023-05-16T09:58:41.905Z,9.52
2023-05-16T10:01:08.962Z,9.40
2023-05-16T10:03:36.716Z,9.77
2023-05-16T10:06:04.061Z,9.00
2023-05-16T10:08:31.664Z,8.90
2023-05-16T10:10:58.288Z,8.40
2023-05-16T10:13:29.934Z,10.10
2023-05-16T10:15:57.921Z,8.55
2023-05-16T10:18:28.956Z,8.20
2023-05-16T10:20:56.394Z,7.50
2023-05-16T10:23:24.876Z,7.13
2023-05-16T10:25:51.808Z,6.25
2023-05-16T10:28:18.479Z,5.80
2023-05-16T10:30:46.485Z,5.75
2023-05-16T10:33:13.980Z,5.85
2023-05-16T10:35:41.128Z,5.93
2023-05-16T10:38:09.503Z,5.97
2023-05-16T10:40:37.635Z,7.07
2023-05-16T10:43:05.452Z,6.32
2023-05-16T10:45:32.422Z,7.10
2023-05-16T10:47:59.472Z,6.38
2023-05-16T10:50:35.011Z,5.80
2023-05-16T10:55:30.561Z,5.75
2023-05-16T10:57:57.764Z,5.00
2023-05-16T11:00:24.447Z,4.30
2023-05-16T11:02:52.624Z,4.70
2023-05-16T11:05:19.586Z,4.85
2023-05-16T11:08:02.059Z,4.32
2023-05-16T11:10:28.817Z,4.32
2023-05-16T11:13:02.328Z,4.45
2023-05-16T11:15:31.878Z,4.18
2023-05-16T11:18:15.302Z,3.35
2023-05-16T11:23:27.699Z,2.65
2023-05-16T11:26:07.151Z,2.78
2023-05-16T11:29:31.792Z,2.80
2023-05-16T11:32:20.686Z,2.65
2023-05-16T11:35:11.048Z,2.75
2023-05-16T11:37:48.557Z,2.78
2023-05-16T11:40:46.823Z,2.90
2023-05-16T11:43:31.361Z,2.97
2023-05-16T11:46:00.616Z,3.47
2023-05-16T11:48:49.214Z,6.13
2023-05-16T11:51:43.808Z,3.35
2023-05-16T11:54:16.405Z,4.80
2023-05-16T11:56:46.864Z,3.90
2023-05-16T11:59:22.130Z,3.50
2023-05-16T12:01:59.777Z,3.33
2023-05-16T12:04:28.450Z,3.40
2023-05-16T12:07:03.254Z,3.60
2023-05-16T12:10:00.238Z,3.25
2023-05-16T12:12:28.900Z,3.30
2023-05-16T12:15:26.198Z,2.80
2023-05-16T12:18:12.421Z,2.20
2023-05-16T12:20:45.812Z,2.58
2023-05-16T12:23:23.078Z,2.55
2023-05-16T12:25:59.739Z,2.15
2023-05-16T12:28:42.028Z,2.00
2023-05-16T12:31:27.146Z,2.60
2023-05-16T12:34:30.812Z,2.17
2023-05-16T12:37:02.397Z,2.00
2023-05-16T12:39:49.536Z,2.20
2023-05-16T12:42:32.358Z,2.67
2023-05-16T12:45:17.137Z,3.03
2023-05-16T12:47:44.149Z,2.45
2023-05-16T12:50:17.141Z,2.58
2023-05-16T12:52:56.911Z,2.50
2023-05-16T12:55:25.056Z,2.40
2023-05-16T12:57:55.896Z,3.05
2023-05-16T13:00:23.644Z,3.00
2023-05-16T13:03:00.286Z,3.10
2023-05-16T13:05:35.209Z,3.75
2023-05-16T13:11:01.425Z,3.30
2023-05-16T13:16:16.805Z,4.55
2023-05-16T13:19:10.622Z,4.82
2023-05-16T13:22:04.139Z,4.85
2023-05-16T13:24:47.383Z,4.95
2023-05-16T13:27:53.042Z,4.90
2023-05-16T13:33:16.512Z,4.40
2023-05-16T13:35:56.777Z,4.93
2023-05-16T13:38:49.264Z,4.85
2023-05-16T13:41:22.280Z,4.60
2023-05-16T13:43:49.431Z,3.63
2023-05-16T13:46:17.298Z,3.63
2023-05-16T13:48:44.136Z,3.50
2023-05-16T13:51:11.393Z,3.78
2023-05-16T13:53:39.248Z,3.78
2023-05-16T13:56:06.039Z,3.35
2023-05-16T13:58:32.568Z,3.55
2023-05-16T14:00:59.220Z,3.53
2023-05-16T14:03:25.993Z,3.75
2023-05-16T14:05:55.358Z,3.30
2023-05-16T14:08:22.354Z,3.45
2023-05-16T14:10:49.948Z,3.95
2023-05-16T14:13:16.499Z,4.22
2023-05-16T14:15:43.188Z,3.42
2023-05-16T14:18:09.892Z,2.80
2023-05-16T14:20:37.940Z,2.60
2023-05-16T14:23:07.149Z,2.72
2023-05-16T14:25:34.282Z,2.58
2023-05-16T14:28:00.965Z,2.65
2023-05-16T14:30:27.746Z,2.50
2023-05-16T14:32:54.602Z,2.47
2023-05-16T14:35:21.290Z,2.58
2023-05-16T14:37:47.958Z,2.22
2023-05-16T14:40:15.190Z,2.63
2023-05-16T14:42:41.670Z,2.55
2023-05-16T14:45:08.478Z,1.98
2023-05-16T14:47:35.089Z,2.20
2023-05-16T14:50:02.051Z,2.22
2023-05-16T14:52:28.610Z,2.15
2023-05-16T14:54:55.237Z,2.10
2023-05-16T14:57:22.214Z,2.60
2023-05-16T14:59:49.770Z,1.95
2023-05-16T15:02:16.509Z,2.47
2023-05-16T15:04:43.284Z,2.10
2023-05-16T15:07:09.885Z,2.13
2023-05-16T15:09:36.584Z,2.83
2023-05-16T15:12:03.086Z,2.53
2023-05-16T15:14:29.847Z,2.40
2023-05-16T15:16:56.304Z,2.78
2023-05-16T15:19:23.215Z,2.38
2023-05-16T15:21:52.167Z,2.50
2023-05-16T15:24:21.100Z,2.83
2023-05-16T15:26:48.507Z,1.90
2023-05-16T15:29:15.046Z,1.88
2023-05-16T15:31:41.690Z,1.98
2023-05-16T15:34:08.708Z,2.03
2023-05-16T15:36:35.478Z,1.45
2023-05-16T15:39:02.089Z,1.90
2023-05-16T15:43:58.522Z,1.95
2023-05-16T15:46:25.399Z,1.80
2023-05-16T15:48:52.556Z,1.98
2023-05-16T15:51:19.321Z,1.88
2023-05-16T15:53:45.876Z,1.73
2023-05-16T15:56:12.549Z,1.50
2023-05-16T15:58:39.099Z,1.45
2023-05-16T16:01:05.704Z,1.42
2023-05-16T16:03:32.319Z,1.50
2023-05-16T16:05:59.054Z,1.50
2023-05-16T16:08:25.635Z,1.80
2023-05-16T16:10:52.290Z,1.30
2023-05-16T16:13:24.215Z,1.73
2023-05-16T16:15:50.939Z,1.50
2023-05-16T16:18:17.635Z,1.45
2023-05-16T16:20:44.477Z,1.60
2023-05-16T16:23:11.399Z,1.33
2023-05-16T16:25:38.043Z,1.70
2023-05-16T16:28:04.706Z,1.48
2023-05-16T16:30:31.401Z,1.40
2023-05-16T16:32:58.072Z,1.27
2023-05-16T16:35:26.343Z,1.05
2023-05-16T16:38:05.735Z,1.52
2023-05-16T16:40:33.654Z,1.83
2023-05-16T16:43:00.209Z,1.40
2023-05-16T16:45:27.401Z,1.50
2023-05-16T16:47:54.258Z,1.67
2023-05-16T16:50:20.949Z,1.30
2023-05-16T16:52:47.764Z,1.15
2023-05-16T16:55:14.904Z,1.40
2023-05-16T16:57:42.336Z,1.90
2023-05-16T17:00:11.362Z,1.45
2023-05-16T17:02:38.330Z,1.98
2023-05-16T17:05:05.400Z,1.30
2023-05-16T17:07:32.641Z,1.35
2023-05-16T17:09:59.210Z,1.30
2023-05-16T17:12:28.398Z,1.92
2023-05-16T17:14:56.196Z,1.13
2023-05-16T17:17:25.024Z,1.15
2023-05-16T17:19:52.171Z,1.08
2023-05-16T17:22:19.128Z,1.58
2023-05-16T17:24:45.836Z,1.10
2023-05-16T17:27:13.496Z,1.38
2023-05-16T17:29:40.025Z,1.13
2023-05-16T17:32:06.660Z,1.15
2023-05-16T17:34:33.292Z,0.88
2023-05-16T17:36:59.999Z,1.10
2023-05-16T17:39:26.639Z,1.30
2023-05-16T17:41:57.395Z,1.10
2023-05-16T17:44:24.056Z,1.40
2023-05-16T17:46:50.715Z,0.93
2023-05-16T17:49:17.536Z,1.30
2023-05-16T17:51:48.060Z,1.27
2023-05-16T17:54:16.079Z,0.88
2023-05-16T17:56:42.896Z,1.10
2023-05-16T17:59:10.223Z,1.00
2023-05-16T18:01:36.958Z,1.10
2023-05-16T18:04:03.918Z,1.60
2023-05-16T18:06:30.574Z,1.20
2023-05-16T18:08:57.215Z,1.25
2023-05-16T18:11:23.811Z,1.48
2023-05-16T18:13:50.418Z,1.58
2023-05-16T18:16:17.106Z,1.60
2023-05-16T18:18:44.069Z,1.52
2023-05-16T18:21:10.631Z,1.67
2023-05-16T18:23:37.349Z,1.73
2023-05-16T18:26:03.995Z,1.50
2023-05-16T18:28:31.034Z,1.55
2023-05-16T18:30:57.677Z,1.92
2023-05-16T18:33:27.037Z,1.80
2023-05-16T18:35:55.176Z,2.03
2023-05-16T18:38:31.973Z,2.17
2023-05-16T18:41:00.116Z,2.22
2023-05-16T18:43:26.701Z,1.98
2023-05-16T18:45:53.283Z,1.65
2023-05-16T18:48:20.091Z,1.70
2023-05-16T18:50:46.951Z,1.98
2023-05-16T18:53:13.543Z,1.83
2023-05-16T18:55:40.086Z,1.80
2023-05-16T18:58:07.072Z,1.35
2023-05-16T19:00:34.364Z,1.50
2023-05-16T19:03:01.404Z,1.90
2023-05-16T19:05:28.571Z,1.90
2023-05-16T19:07:55.389Z,2.03
2023-05-16T19:10:25.770Z,2.67
2023-05-16T19:12:54.008Z,1.80
2023-05-16T19:15:20.663Z,2.42
2023-05-16T19:17:47.427Z,2.33
2023-05-16T19:20:14.256Z,1.83
2023-05-16T19:22:40.988Z,2.38
2023-05-16T19:25:07.662Z,1.83
2023-05-16T19:27:34.333Z,1.83
2023-05-16T19:30:01.059Z,2.95
2023-05-16T19:32:27.711Z,4.75
2023-05-16T19:34:54.502Z,5.03
2023-05-16T19:37:21.296Z,5.25
2023-05-16T19:39:47.964Z,4.10
2023-05-16T19:42:14.498Z,4.10
2023-05-16T19:44:42.736Z,4.65
2023-05-16T19:47:09.228Z,3.53
2023-05-16T19:49:35.934Z,4.70
2023-05-16T19:52:04.642Z,4.50
2023-05-16T19:54:31.159Z,4.63
2023-05-16T19:56:58.010Z,4.38
2023-05-16T19:59:24.577Z,3.58
2023-05-16T20:01:51.054Z,3.50
2023-05-16T20:04:17.775Z,3.20
2023-05-16T20:06:44.399Z,3.72
2023-05-16T20:09:11.334Z,3.35
2023-05-16T20:11:37.990Z,2.92
2023-05-16T20:14:04.484Z,2.70
2023-05-16T20:16:31.141Z,3.03
2023-05-16T20:18:58.445Z,3.45
2023-05-16T20:21:25.005Z,2.63
2023-05-16T20:23:51.522Z,1.83
2023-05-16T20:26:18.542Z,1.85
2023-05-16T20:28:45.672Z,2.42
2023-05-16T20:31:12.839Z,2.30
2023-05-16T20:33:39.500Z,2.15
2023-05-16T20:36:06.985Z,1.80
2023-05-16T20:38:33.638Z,1.60
2023-05-16T20:41:00.360Z,1.98
2023-05-16T20:43:27.007Z,1.40
2023-05-16T20:45:55.806Z,1.20
2023-05-16T20:48:22.338Z,1.30
2023-05-16T20:50:48.972Z,1.27
2023-05-16T20:53:15.622Z,1.40
2023-05-16T20:55:42.293Z,1.38
2023-05-16T20:58:09.083Z,1.30
2023-05-16T21:00:35.728Z,1.45
2023-05-16T21:03:02.675Z,2.00
2023-05-16T21:05:29.236Z,1.05
2023-05-16T21:07:55.776Z,1.00
2023-05-16T21:10:22.387Z,1.00
2023-05-16T21:12:50.146Z,1.50
2023-05-16T21:15:16.839Z,1.40
2023-05-16T21:17:43.644Z,1.25
2023-05-16T21:20:11.427Z,1.38
2023-05-16T21:22:38.613Z,1.58
2023-05-16T21:25:05.329Z,2.00
2023-05-16T21:27:32.918Z,1.70
2023-05-16T21:29:59.402Z,1.50
2023-05-16T21:32:30.169Z,1.17
2023-05-16T21:34:56.680Z,1.27
2023-05-16T21:37:23.297Z,1.00
2023-05-16T21:39:49.778Z,1.23
2023-05-16T21:42:16.356Z,0.80
2023-05-16T21:44:42.897Z,1.30
2023-05-16T21:47:09.438Z,1.05
2023-05-16T21:49:36.087Z,1.25
2023-05-16T21:52:03.963Z,1.08
2023-05-16T21:54:32.249Z,1.00
2023-05-16T21:56:58.822Z,1.70
2023-05-16T21:59:25.547Z,1.27
2023-05-16T22:01:52.102Z,0.93
2023-05-16T22:04:18.844Z,1.65
2023-05-16T22:06:45.433Z,1.08
2023-05-16T22:09:12.418Z,1.08
2023-05-16T22:11:38.935Z,1.23
2023-05-16T22:14:05.574Z,0.80
2023-05-16T22:16:32.101Z,1.50
2023-05-16T22:18:58.821Z,1.08
2023-05-16T22:21:25.479Z,1.25
2023-05-16T22:23:52.159Z,1.23
2023-05-16T22:26:19.273Z,1.15
2023-05-16T22:28:45.932Z,1.13
2023-05-16T22:31:12.486Z,1.02
2023-05-16T22:33:39.221Z,1.17
2023-05-16T22:36:06.150Z,0.95
2023-05-16T22:38:32.706Z,1.50
2023-05-16T22:40:59.326Z,1.00
2023-05-16T22:43:26.004Z,0.98
2023-05-16T22:45:52.713Z,1.13
2023-05-16T22:48:19.394Z,1.55
2023-05-16T22:50:45.948Z,1.35
2023-05-16T22:53:12.600Z,1.50
2023-05-16T22:55:39.092Z,1.05
2023-05-16T22:58:06.011Z,1.10
2023-05-16T23:00:32.627Z,1.20
2023-05-16T23:02:59.585Z,0.98
2023-05-16T23:05:26.443Z,0.90
2023-05-16T23:07:53.148Z,1.17
2023-05-16T23:10:19.681Z,1.00
2023-05-16T23:12:49.259Z,0.90
2023-05-16T23:15:16.013Z,1.17
2023-05-16T23:17:42.640Z,1.20
2023-05-16T23:20:09.448Z,0.95
2023-05-16T23:22:35.994Z,1.38
2023-05-16T23:25:02.639Z,0.85
2023-05-16T23:27:29.597Z,1.25
2023-05-16T23:29:56.148Z,1.15
2023-05-16T23:32:22.972Z,1.25
2023-05-16T23:34:49.828Z,1.15
2023-05-16T23:37:16.373Z,1.20
2023-05-16T23:39:42.927Z,0.80
2023-05-16T23:42:09.512Z,1.05
2023-05-16T23:44:36.097Z,1.05
2023-05-16T23:47:03.735Z,1.00
2023-05-16T23:49:31.685Z,1.40
2023-05-16T23:51:59.022Z,1.48
2023-05-16T23:54:25.929Z,1.45
2023-05-16T23:56:53.190Z,1.27
2023-05-16T23:59:20.167Z,1.10
